createdAt,value
2019-05-09T00:00:03.807Z,99196.50
2019-05-09T00:02:39.794Z,99204.55
2019-05-09T00:05:13.236Z,99213.58
2019-05-09T00:07:44.775Z,99206.55
2019-05-09T00:10:17.097Z,99205.38
2019-05-09T00:12:49.008Z,99201.55
2019-05-09T00:15:21.069Z,99200.09
2019-05-09T00:17:53.336Z,99199.59
2019-05-09T00:20:44.177Z,99197.28
2019-05-09T00:23:16.200Z,99198.25
2019-05-09T00:25:48.250Z,99194.18
2019-05-09T00:28:20.204Z,99189.52
2019-05-09T00:31:05.719Z,99183.66
2019-05-09T00:33:37.690Z,99179.56
2019-05-09T00:36:09.574Z,99168.78
2019-05-09T00:38:43.576Z,99170.58
2019-05-09T00:41:17.163Z,99166.20
2019-05-09T00:43:55.096Z,99175.77
2019-05-09T00:46:39.505Z,99179.91
2019-05-09T00:49:18.276Z,99173.38
2019-05-09T00:51:49.625Z,99172.78
2019-05-09T00:54:23.911Z,99170.27
2019-05-09T00:56:55.125Z,99165.54
2019-05-09T00:59:27.055Z,99153.09
2019-05-09T01:01:59.236Z,99146.77
2019-05-09T01:04:33.312Z,99154.19
2019-05-09T01:07:05.513Z,99154.81
2019-05-09T01:09:37.437Z,99164.13
2019-05-09T01:12:09.488Z,99168.27
2019-05-09T01:14:43.255Z,99171.14
2019-05-09T01:17:15.122Z,99169.61
2019-05-09T01:19:47.179Z,99166.56
2019-05-09T01:22:19.177Z,99159.61
2019-05-09T01:24:53.296Z,99162.80
2019-05-09T01:27:24.812Z,99159.39
2019-05-09T01:29:57.766Z,99163.13
2019-05-09T01:32:47.317Z,99166.59
2019-05-09T01:35:19.341Z,99165.34
2019-05-09T01:37:51.289Z,99168.14
2019-05-09T01:40:23.895Z,99169.94
2019-05-09T01:42:56.017Z,99172.70
2019-05-09T01:45:27.961Z,99172.30
2019-05-09T01:47:59.935Z,99178.14
2019-05-09T01:50:33.904Z,99187.36
2019-05-09T01:53:05.725Z,99190.23
2019-05-09T01:55:55.413Z,99189.84
2019-05-09T01:58:28.889Z,99200.31
2019-05-09T02:01:03.708Z,99206.08
2019-05-09T02:03:35.801Z,99202.96
2019-05-09T02:06:08.285Z,99210.52
2019-05-09T02:08:40.366Z,99211.30
2019-05-09T02:11:13.280Z,99195.92
2019-05-09T02:13:44.807Z,99200.04
2019-05-09T02:16:25.223Z,99197.17
2019-05-09T02:19:24.011Z,99196.05
2019-05-09T02:21:55.658Z,99193.33
2019-05-09T02:24:26.889Z,99188.41
2019-05-09T02:26:58.693Z,99193.63
2019-05-09T02:29:30.645Z,99198.06
2019-05-09T02:32:04.500Z,99194.33
2019-05-09T02:34:36.300Z,99186.27
2019-05-09T02:37:09.302Z,99190.25
2019-05-09T02:39:41.402Z,99185.13
2019-05-09T02:42:14.462Z,99183.33
2019-05-09T02:44:49.243Z,99183.40
2019-05-09T02:47:22.266Z,99184.19
2019-05-09T02:49:54.315Z,99190.72
2019-05-09T02:52:28.706Z,99178.42
2019-05-09T02:54:59.271Z,99178.32
2019-05-09T02:57:30.490Z,99179.35
2019-05-09T03:00:21.126Z,99180.97
2019-05-09T03:03:02.035Z,99179.77
2019-05-09T03:05:33.863Z,99171.16
2019-05-09T03:08:08.742Z,99174.60
2019-05-09T03:10:39.416Z,99175.46
2019-05-09T03:13:11.480Z,99176.32
2019-05-09T03:15:43.920Z,99173.81
2019-05-09T03:18:18.411Z,99177.39
2019-05-09T03:21:08.611Z,99173.88
2019-05-09T03:23:39.772Z,99171.33
2019-05-09T03:26:19.220Z,99175.84
2019-05-09T03:28:59.279Z,99172.86
2019-05-09T03:31:32.213Z,99173.97
2019-05-09T03:34:04.235Z,99170.98
2019-05-09T03:36:35.550Z,99177.08
2019-05-09T03:39:08.874Z,99173.66
2019-05-09T03:41:40.765Z,99180.35
2019-05-09T03:44:12.741Z,99183.47
2019-05-09T03:47:08.271Z,99183.77
2019-05-09T03:49:39.972Z,99178.70
2019-05-09T03:52:13.943Z,99181.05
2019-05-09T03:54:47.622Z,99177.15
2019-05-09T03:57:28.359Z,99177.94
2019-05-09T04:00:00.380Z,99177.70
2019-05-09T04:02:32.332Z,99178.49
2019-05-09T04:05:03.619Z,99186.98
2019-05-09T04:07:35.364Z,99176.52
2019-05-09T04:10:07.884Z,99185.39
2019-05-09T04:12:52.906Z,99178.77
2019-05-09T04:15:13.263Z,99176.69
2019-05-09T04:17:47.442Z,99178.87
2019-05-09T04:20:18.865Z,99183.24
2019-05-09T04:22:50.685Z,99177.77
2019-05-09T04:25:27.682Z,99185.26
2019-05-09T04:27:58.864Z,99189.95
2019-05-09T04:30:30.693Z,99190.25
2019-05-09T04:33:02.544Z,99183.02
2019-05-09T04:35:34.439Z,99181.55
2019-05-09T04:38:07.823Z,99188.20
2019-05-09T04:40:44.919Z,99194.44
2019-05-09T04:43:18.741Z,99188.11
2019-05-09T04:45:57.818Z,99193.06
2019-05-09T04:48:34.402Z,99191.95
2019-05-09T04:51:07.879Z,99192.28
2019-05-09T04:53:39.997Z,99194.28
2019-05-09T04:56:21.175Z,99197.05
2019-05-09T04:58:53.174Z,99200.06
2019-05-09T05:01:44.252Z,99197.73
2019-05-09T05:04:18.054Z,99200.31
2019-05-09T05:06:59.222Z,99196.25
2019-05-09T05:09:32.598Z,99201.95
2019-05-09T05:12:04.388Z,99208.87
2019-05-09T05:14:38.259Z,99203.08
2019-05-09T05:17:11.315Z,99203.01
2019-05-09T05:19:43.493Z,99202.72
2019-05-09T05:22:28.188Z,99201.80
2019-05-09T05:25:04.115Z,99192.14
2019-05-09T05:27:35.302Z,99191.58
2019-05-09T05:30:07.850Z,99186.98
2019-05-09T05:32:49.195Z,99192.77
2019-05-09T05:35:39.872Z,99192.69
2019-05-09T05:38:11.759Z,99190.69
2019-05-09T05:40:46.413Z,99193.19
2019-05-09T05:43:17.479Z,99205.61
2019-05-09T05:46:07.657Z,99203.06
2019-05-09T05:48:40.754Z,99204.06
2019-05-09T05:51:12.654Z,99208.63
2019-05-09T05:53:44.486Z,99208.06
2019-05-09T05:56:18.758Z,99213.92
2019-05-09T05:58:50.631Z,99213.08
2019-05-09T06:01:22.527Z,99213.42
2019-05-09T06:03:54.455Z,99212.62
2019-05-09T06:06:33.861Z,99208.96
2019-05-09T06:09:08.288Z,99214.36
2019-05-09T06:11:40.307Z,99211.15
2019-05-09T06:14:12.160Z,99211.78
2019-05-09T06:16:44.066Z,99212.45
2019-05-09T06:19:17.814Z,99214.58
2019-05-09T06:21:52.312Z,99215.28
2019-05-09T06:24:24.522Z,99220.76
2019-05-09T06:26:58.555Z,99223.89
2019-05-09T06:29:30.164Z,99221.98
2019-05-09T06:32:03.903Z,99213.52
2019-05-09T06:34:39.644Z,99218.17
2019-05-09T06:37:09.489Z,99221.00
2019-05-09T06:39:41.379Z,99220.09
2019-05-09T06:42:13.019Z,99218.48
2019-05-09T06:45:02.186Z,99216.59
2019-05-09T06:47:38.096Z,99223.81
2019-05-09T06:50:12.113Z,99228.66
2019-05-09T06:52:45.224Z,99221.70
2019-05-09T06:55:17.410Z,99226.83
2019-05-09T06:57:49.495Z,99233.24
2019-05-09T07:00:44.631Z,99230.38
2019-05-09T07:03:18.958Z,99224.44
2019-05-09T07:06:24.136Z,99227.28
2019-05-09T07:09:03.160Z,99227.52
2019-05-09T07:11:38.093Z,99229.63
2019-05-09T07:14:32.307Z,99227.33
2019-05-09T07:17:01.842Z,99219.89
2019-05-09T07:19:33.789Z,99223.59
2019-05-09T07:22:19.664Z,99222.98
2019-05-09T07:25:10.903Z,99221.88
2019-05-09T07:27:43.322Z,99218.40
2019-05-09T07:30:29.084Z,99229.00
2019-05-09T07:33:12.874Z,99230.98
2019-05-09T07:35:47.444Z,99230.19
2019-05-09T07:38:28.630Z,99216.14
2019-05-09T07:41:01.149Z,99210.34
2019-05-09T07:43:32.875Z,99215.98
2019-05-09T07:46:09.161Z,99214.27
2019-05-09T07:48:44.773Z,99221.64
2019-05-09T07:51:18.061Z,99221.84
2019-05-09T07:53:50.178Z,99217.10
2019-05-09T07:56:21.570Z,99220.31
2019-05-09T07:58:53.490Z,99221.70
2019-05-09T08:01:27.834Z,99213.27
2019-05-09T08:03:59.241Z,99216.36
2019-05-09T08:06:31.324Z,99217.95
2019-05-09T08:09:03.521Z,99225.23
2019-05-09T08:11:37.488Z,99221.86
2019-05-09T08:14:10.939Z,99224.08
2019-05-09T08:16:42.518Z,99219.16
2019-05-09T08:19:14.348Z,99220.39
2019-05-09T08:21:47.969Z,99218.98
2019-05-09T08:24:19.694Z,99227.88
2019-05-09T08:26:51.622Z,99235.03
2019-05-09T08:29:23.450Z,99234.68
2019-05-09T08:31:55.328Z,99235.12
2019-05-09T08:34:28.472Z,99243.27
2019-05-09T08:37:00.755Z,99241.33
2019-05-09T08:39:32.661Z,99248.33
2019-05-09T08:42:03.832Z,99248.38
2019-05-09T08:44:37.754Z,99251.69
2019-05-09T08:47:09.157Z,99254.22
2019-05-09T08:49:49.915Z,99249.91
2019-05-09T08:52:21.776Z,99250.19
2019-05-09T08:54:57.810Z,99251.20
2019-05-09T08:57:29.955Z,99256.93
2019-05-09T09:00:01.777Z,99242.50
2019-05-09T09:02:33.805Z,99255.08
2019-05-09T09:05:07.898Z,99252.72
2019-05-09T09:07:39.456Z,99247.66
2019-05-09T09:10:11.252Z,99249.26
2019-05-09T09:12:43.142Z,99257.21
2019-05-09T09:15:15.041Z,99243.80
2019-05-09T09:17:49.147Z,99244.16
2019-05-09T09:20:20.538Z,99252.23
2019-05-09T09:22:57.927Z,99251.69
2019-05-09T09:25:28.978Z,99249.31
2019-05-09T09:28:00.248Z,99247.54
2019-05-09T09:30:32.046Z,99250.31
2019-05-09T09:33:03.843Z,99253.76
2019-05-09T09:35:38.091Z,99254.94
2019-05-09T09:38:09.617Z,99257.02
2019-05-09T09:40:41.739Z,99257.76
2019-05-09T09:43:13.551Z,99259.93
2019-05-09T09:45:47.830Z,99257.03
2019-05-09T09:48:19.035Z,99257.16
2019-05-09T09:50:51.971Z,99262.83
2019-05-09T09:53:23.825Z,99259.56
2019-05-09T09:55:58.000Z,99265.22
2019-05-09T09:58:29.199Z,99261.22
2019-05-09T10:01:23.030Z,99257.92
2019-05-09T10:04:16.595Z,99257.89
2019-05-09T10:06:41.109Z,99265.21
2019-05-09T10:09:13.198Z,99259.74
2019-05-09T10:11:45.202Z,99257.92
2019-05-09T10:14:22.364Z,99265.55
2019-05-09T10:17:13.085Z,99265.83
2019-05-09T10:20:06.693Z,99261.93
2019-05-09T10:22:46.434Z,99254.19
2019-05-09T10:25:12.321Z,99256.45
2019-05-09T10:27:45.021Z,99259.94
2019-05-09T10:30:19.503Z,99265.91
2019-05-09T10:32:52.941Z,99266.25
2019-05-09T10:35:27.813Z,99271.19
2019-05-09T10:38:00.148Z,99271.52
2019-05-09T10:40:32.073Z,99267.47
2019-05-09T10:43:34.632Z,99268.23
2019-05-09T10:46:15.502Z,99274.72
2019-05-09T10:48:51.963Z,99267.84
2019-05-09T10:51:23.855Z,99278.18
2019-05-09T10:53:55.661Z,99273.28
2019-05-09T10:56:28.191Z,99278.59
2019-05-09T10:59:00.105Z,99277.03
2019-05-09T11:01:31.932Z,99278.13
2019-05-09T11:04:03.735Z,99274.63
2019-05-09T11:06:38.232Z,99271.63
2019-05-09T11:09:11.335Z,99268.50
2019-05-09T11:11:44.385Z,99272.60
2019-05-09T11:14:31.577Z,99274.81
2019-05-09T11:17:06.421Z,99273.38
2019-05-09T11:19:23.463Z,99265.03
2019-05-09T11:21:58.646Z,99263.43
2019-05-09T11:24:41.765Z,99257.92
2019-05-09T11:27:04.324Z,99258.89
2019-05-09T11:29:35.511Z,99258.98
2019-05-09T11:32:08.058Z,99251.94
2019-05-09T11:34:40.092Z,99260.80
2019-05-09T11:37:11.962Z,99256.81
2019-05-09T11:39:43.797Z,99255.75
2019-05-09T11:42:17.713Z,99257.28
2019-05-09T11:44:49.291Z,99257.92
2019-05-09T11:47:31.931Z,99258.61
2019-05-09T11:49:54.469Z,99252.59
2019-05-09T11:52:28.630Z,99252.02
2019-05-09T11:54:59.141Z,99261.72
2019-05-09T11:57:31.641Z,99262.11
2019-05-09T12:00:04.125Z,99259.41
2019-05-09T12:02:38.552Z,99266.01
2019-05-09T12:05:10.145Z,99257.66
2019-05-09T12:07:41.956Z,99261.27
2019-05-09T12:10:13.979Z,99255.75
2019-05-09T12:12:47.791Z,99254.02
2019-05-09T12:15:19.520Z,99258.05
2019-05-09T12:17:58.249Z,99258.95
2019-05-09T12:20:24.883Z,99260.29
2019-05-09T12:22:58.436Z,99268.23
2019-05-09T12:25:30.249Z,99269.59
2019-05-09T12:28:02.187Z,99272.76
2019-05-09T12:30:34.180Z,99273.17
2019-05-09T12:33:08.477Z,99269.55
2019-05-09T12:35:39.673Z,99268.50
2019-05-09T12:38:11.628Z,99266.78
2019-05-09T12:40:43.589Z,99263.67
2019-05-09T12:43:18.596Z,99264.48
2019-05-09T12:45:50.029Z,99259.30
2019-05-09T12:48:21.836Z,99266.28
2019-05-09T12:50:53.709Z,99259.08
2019-05-09T12:53:27.978Z,99257.44
2019-05-09T12:56:03.369Z,99252.89
2019-05-09T12:58:35.225Z,99251.16
2019-05-09T13:01:07.624Z,99244.33
2019-05-09T13:03:42.337Z,99242.86
2019-05-09T13:06:14.311Z,99247.84
2019-05-09T13:08:48.038Z,99236.63
2019-05-09T13:11:20.220Z,99243.61
2019-05-09T13:13:52.191Z,99233.91
2019-05-09T13:16:47.532Z,99227.55
2019-05-09T13:19:12.633Z,99228.86
2019-05-09T13:21:44.403Z,99219.30
2019-05-09T13:24:19.468Z,99220.48
2019-05-09T13:26:51.751Z,99217.22
2019-05-09T13:29:23.684Z,99219.52
2019-05-09T13:31:57.724Z,99212.81
2019-05-09T13:34:29.735Z,99213.99
2019-05-09T13:37:01.668Z,99216.56
2019-05-09T13:39:33.644Z,99214.55
2019-05-09T13:42:07.984Z,99217.00
2019-05-09T13:44:41.609Z,99215.16
2019-05-09T13:47:12.969Z,99216.68
2019-05-09T13:49:48.267Z,99219.63
2019-05-09T13:52:19.609Z,99211.08
2019-05-09T13:54:51.459Z,99207.13
2019-05-09T13:57:22.730Z,99200.43
2019-05-09T13:59:54.543Z,99203.61
2019-05-09T14:02:28.559Z,99202.58
2019-05-09T14:04:59.997Z,99202.91
2019-05-09T14:07:31.814Z,99206.61
2019-05-09T14:10:03.803Z,99210.35
2019-05-09T14:12:38.027Z,99213.60
2019-05-09T14:15:09.580Z,99206.05
2019-05-09T14:17:48.595Z,99216.09
2019-05-09T14:20:15.150Z,99214.05
2019-05-09T14:22:49.021Z,99212.11
2019-05-09T14:25:20.647Z,99211.51
2019-05-09T14:27:52.531Z,99214.20
2019-05-09T14:30:24.477Z,99209.05
2019-05-09T14:32:56.302Z,99221.83
2019-05-09T14:35:29.256Z,99211.80
2019-05-09T14:38:01.287Z,99209.18
2019-05-09T14:40:34.311Z,99216.45
2019-05-09T14:43:06.249Z,99215.14
2019-05-09T14:45:38.240Z,99206.05
2019-05-09T14:48:10.997Z,99210.02
2019-05-09T14:50:42.931Z,99210.99
2019-05-09T14:53:15.475Z,99201.94
2019-05-09T14:55:47.644Z,99204.34
2019-05-09T14:58:18.862Z,99203.86
2019-05-09T15:00:49.999Z,99209.05
2019-05-09T15:03:21.821Z,99202.95
2019-05-09T15:05:57.562Z,99206.27
2019-05-09T15:08:29.429Z,99207.95
2019-05-09T15:11:03.080Z,99213.13
2019-05-09T15:13:34.266Z,99211.61
2019-05-09T15:16:08.853Z,99209.88
2019-05-09T15:18:40.487Z,99205.95
2019-05-09T15:21:12.295Z,99206.97
2019-05-09T15:23:44.315Z,99207.19
2019-05-09T15:26:17.684Z,99210.03
2019-05-09T15:28:49.829Z,99218.00
2019-05-09T15:31:21.640Z,99214.97
2019-05-09T15:33:53.505Z,99214.81
2019-05-09T15:36:25.437Z,99211.62
2019-05-09T15:38:59.157Z,99210.50
2019-05-09T15:41:30.931Z,99209.20
2019-05-09T15:44:02.744Z,99209.20
2019-05-09T15:46:40.489Z,99219.03
2019-05-09T15:49:12.332Z,99212.09
2019-05-09T15:51:44.185Z,99212.05
2019-05-09T15:54:17.834Z,99212.42
2019-05-09T15:56:49.758Z,99210.55
2019-05-09T15:59:21.660Z,99209.63
2019-05-09T16:01:53.687Z,99211.07
2019-05-09T16:04:27.877Z,99204.27
2019-05-09T16:07:02.180Z,99203.47
2019-05-09T16:09:34.087Z,99204.31
2019-05-09T16:12:07.793Z,99207.14
2019-05-09T16:14:40.469Z,99207.38
2019-05-09T16:17:12.390Z,99211.75
2019-05-09T16:19:44.315Z,99204.84
2019-05-09T16:22:18.734Z,99206.75
2019-05-09T16:24:49.906Z,99208.44
2019-05-09T16:27:21.762Z,99208.00
2019-05-09T16:29:53.832Z,99207.11
2019-05-09T16:32:28.051Z,99215.10
2019-05-09T16:35:01.791Z,99209.98
2019-05-09T16:37:56.324Z,99216.98
2019-05-09T16:40:08.531Z,99210.29
2019-05-09T16:42:40.568Z,99208.13
2019-05-09T16:45:17.906Z,99208.83
2019-05-09T16:47:49.575Z,99216.55
2019-05-09T16:51:03.257Z,99214.34
2019-05-09T16:53:31.034Z,99215.23
2019-05-09T16:56:03.091Z,99215.27
2019-05-09T16:58:34.926Z,99215.58
2019-05-09T17:01:09.144Z,99215.84
2019-05-09T17:03:41.206Z,99217.59
2019-05-09T17:06:13.284Z,99213.69
2019-05-09T17:08:49.129Z,99219.92
2019-05-09T17:11:21.133Z,99211.41
2019-05-09T17:13:53.271Z,99220.33
2019-05-09T17:16:24.782Z,99224.69
2019-05-09T17:18:58.107Z,99217.56
2019-05-09T17:21:48.097Z,99218.54
2019-05-09T17:24:20.025Z,99221.88
2019-05-09T17:26:51.875Z,99222.98
2019-05-09T17:29:24.175Z,99217.80
2019-05-09T17:31:58.471Z,99221.02
2019-05-09T17:34:30.300Z,99224.41
2019-05-09T17:37:01.603Z,99226.48
2019-05-09T17:39:33.720Z,99236.42
2019-05-09T17:42:07.622Z,99233.85
2019-05-09T17:44:39.822Z,99231.30
2019-05-09T17:47:14.190Z,99233.52
2019-05-09T17:49:48.241Z,99228.95
2019-05-09T17:52:20.052Z,99231.72
2019-05-09T17:55:01.302Z,99232.17
2019-05-09T17:57:38.727Z,99231.48
2019-05-09T18:00:12.848Z,99228.16
2019-05-09T18:02:44.858Z,99233.55
2019-05-09T18:05:17.339Z,99242.71
2019-05-09T18:07:50.018Z,99239.23
2019-05-09T18:10:23.375Z,99237.77
2019-05-09T18:12:54.770Z,99237.63
2019-05-09T18:15:28.249Z,99246.70
2019-05-09T18:17:59.718Z,99246.12
2019-05-09T18:20:31.718Z,99246.49
2019-05-09T18:23:08.186Z,99254.75
2019-05-09T18:25:40.046Z,99250.86
2019-05-09T18:28:11.753Z,99249.64
2019-05-09T18:30:44.058Z,99260.45
2019-05-09T18:33:27.025Z,99256.02
2019-05-09T18:35:59.183Z,99252.86
2019-05-09T18:38:34.040Z,99257.80
2019-05-09T18:41:07.930Z,99267.61
2019-05-09T18:43:38.485Z,99273.27
2019-05-09T18:46:10.407Z,99277.05
2019-05-09T18:48:42.365Z,99279.47
2019-05-09T18:51:15.633Z,99281.55
2019-05-09T18:53:53.899Z,99279.73
2019-05-09T18:56:27.911Z,99281.44
2019-05-09T18:59:00.049Z,99283.95
2019-05-09T19:01:39.189Z,99289.47
2019-05-09T19:04:43.580Z,99288.77
2019-05-09T19:07:23.070Z,99297.83
2019-05-09T19:12:50.141Z,99297.73
2019-05-09T19:15:31.393Z,99300.37
2019-05-09T19:18:12.585Z,99299.11
2019-05-09T19:20:50.095Z,99301.55
2019-05-09T19:23:22.536Z,99301.16
2019-05-09T19:25:59.357Z,99308.59
2019-05-09T19:40:40.372Z,99313.05
2019-05-09T19:43:12.356Z,99313.83
2019-05-09T19:45:47.566Z,99313.73
2019-05-09T19:48:21.203Z,99317.89
2019-05-09T19:50:52.601Z,99309.05
2019-05-09T19:53:24.509Z,99311.62
2019-05-09T19:55:56.428Z,99314.73
2019-05-09T19:58:28.371Z,99315.41
2019-05-09T20:00:59.631Z,99308.22
2019-05-09T20:03:30.836Z,99316.78
2019-05-09T20:06:02.995Z,99314.23
2019-05-09T20:08:35.026Z,99310.77
2019-05-09T20:11:35.109Z,99310.67
2019-05-09T20:14:10.217Z,99308.28
2019-05-09T20:16:44.153Z,99305.53
2019-05-09T20:19:16.137Z,99304.45
2019-05-09T20:21:48.189Z,99306.70
2019-05-09T20:24:20.156Z,99310.77
2019-05-09T20:26:52.229Z,99305.63
2019-05-09T20:29:23.521Z,99314.02
2019-05-09T20:31:54.855Z,99316.00
2019-05-09T20:34:27.657Z,99320.07
2019-05-09T20:36:59.636Z,99320.88
2019-05-09T20:39:35.973Z,99318.39
2019-05-09T20:42:08.399Z,99320.91
2019-05-09T20:44:40.559Z,99318.47
2019-05-09T20:47:13.283Z,99322.07
2019-05-09T20:49:45.340Z,99319.67
2019-05-09T20:52:17.454Z,99318.75
2019-05-09T20:54:49.630Z,99321.02
2019-05-09T20:57:21.593Z,99320.08
2019-05-09T20:59:53.713Z,99324.24
2019-05-09T21:02:25.828Z,99325.11
2019-05-09T21:04:57.976Z,99321.59
2019-05-09T21:07:30.127Z,99324.64
2019-05-09T21:10:02.242Z,99325.11
2019-05-09T21:12:34.734Z,99321.05
2019-05-09T21:15:08.396Z,99323.06
2019-05-09T21:17:41.048Z,99332.86
2019-05-09T21:20:14.902Z,99330.66
2019-05-09T21:22:47.075Z,99333.14
2019-05-09T21:25:19.402Z,99330.95
2019-05-09T21:27:51.536Z,99335.41
2019-05-09T21:30:24.060Z,99334.66
2019-05-09T21:32:55.488Z,99338.17
2019-05-09T21:35:27.399Z,99343.48
2019-05-09T21:37:59.367Z,99343.09
2019-05-09T21:40:31.280Z,99343.16
2019-05-09T21:43:02.581Z,99343.70
2019-05-09T21:45:35.454Z,99343.95
2019-05-09T21:48:07.533Z,99342.16
2019-05-09T21:50:39.916Z,99344.31
2019-05-09T21:53:11.130Z,99350.34
2019-05-09T21:55:45.074Z,99349.95
2019-05-09T21:58:16.947Z,99354.00
2019-05-09T22:00:54.498Z,99352.27
2019-05-09T22:03:27.766Z,99351.91
2019-05-09T22:05:59.979Z,99355.43
2019-05-09T22:08:31.339Z,99358.91
2019-05-09T22:11:03.220Z,99355.33
2019-05-09T22:13:35.201Z,99360.56
2019-05-09T22:16:07.159Z,99361.89
2019-05-09T22:18:39.120Z,99363.30
2019-05-09T22:21:23.949Z,99365.88
2019-05-09T22:23:57.169Z,99362.69
2019-05-09T22:26:29.329Z,99359.78
2019-05-09T22:29:01.272Z,99363.76
2019-05-09T22:31:33.155Z,99363.00
2019-05-09T22:34:08.363Z,99359.02
2019-05-09T22:36:39.519Z,99364.01
2019-05-09T22:39:11.421Z,99364.76
2019-05-09T22:41:45.101Z,99368.42
2019-05-09T22:44:16.485Z,99368.09
2019-05-09T22:46:48.536Z,99364.28
2019-05-09T22:49:21.824Z,99366.08
2019-05-09T22:51:53.990Z,99366.15
2019-05-09T22:54:26.023Z,99375.52
2019-05-09T22:56:59.750Z,99369.48
2019-05-09T22:59:30.959Z,99366.93
2019-05-09T23:02:06.734Z,99360.76
2019-05-09T23:04:36.443Z,99361.62
2019-05-09T23:07:09.579Z,99360.19
2019-05-09T23:09:41.652Z,99359.70
2019-05-09T23:12:14.634Z,99363.60
2019-05-09T23:14:46.508Z,99360.53
2019-05-09T23:17:18.787Z,99364.69
2019-05-09T23:19:50.848Z,99364.82
2019-05-09T23:22:27.591Z,99364.42
2019-05-09T23:25:02.762Z,99363.49
2019-05-09T23:27:34.096Z,99361.30
2019-05-09T23:30:06.616Z,99360.77
2019-05-09T23:32:43.856Z,99361.56
2019-05-09T23:35:17.182Z,99366.77
2019-05-09T23:37:53.990Z,99363.52
2019-05-09T23:40:30.819Z,99361.72
2019-05-09T23:43:04.571Z,99364.31
2019-05-09T23:45:36.534Z,99364.94
2019-05-09T23:48:08.636Z,99365.47
2019-05-09T23:50:40.500Z,99368.75
2019-05-09T23:53:18.036Z,99367.23
2019-05-09T23:56:07.951Z,99374.27
2019-05-09T23:58:57.472Z,99377.11
